Solikamsk, Russia
Current Conditions -  °F | °C
As of 10:00 AM on Saturday 29 Nov 2014 (Local Time) from USPP Reporting Station
Overcast Overcast  
Wind Chill: 22°   Ceiling: 1000
Heat Index: 30°   Visibility: 6mi
Dew Point: 28°   Wind: 9mph
Humidity: 93%   Direction: 280°W
Pressure: 30.48"   Gusts: NA
Location:  59.64°N, 56.75°E
Report Text: USPP 290500Z 28004MPS 9999 BKN010 OVC070 M01/M02 Q1032 21350135NOSIG RMK QFE763/1018 FBL ICE INC 270-1500
Loading
Personal Weather Stations






























Interactive Weather Map New forecast layout! Learn more

10-Day Weather Forecast

Advertisements
Track Severe Weather on mobile